Apison, Tennessee
Current Conditions -  °F | °C
As of 4:53 PM on Tuesday 21 Oct 2014 (Local Time) from KCHA Reporting Station
Few Clouds Few Clouds  
Wind Chill: 22°   Ceiling: Unl
Heat Index: 22°   Visibility: 10mi
Dew Point:   Wind: 13mph
Humidity: 37%   Direction: 360°N
Pressure: 29.99"   Gusts: NA
Location:  35.02°N, 85.02°W
Report Text: KCHA 212053Z 36011KT 10SM FEW055 22/07 A2999 RMK AO2 SLP152 T02220067 56008
Loading
Personal Weather Stations






























Interactive Weather Map
Tropical Storm Tracking
New forecast layout! Learn more

10-Day Weather Forecast

Advertisements
Track Severe Weather on mobile